Flight Track Log - Related Links

Times and Time Zones

All times are in EDT time to prevent confusion due to time zone crossing. See the SWA2130 flight status page for this flight to view local times or setup timezone preferences in your user account.

Time Position Orientation Groundspeed Altitude Reporting Facility
EDT Latitude Longitude Course Direction KTS MPH feet Rate Location/Type
Wed 07:09:25 PM 37.6333 -122.3667 354° North 151 174 1,000  Level Northern Cal TRACON
Wed 07:09:47 PM 37.6469 -122.3683 354° North 149 171 1,900 2,458 Climbing Oakland Center
Wed 07:10:48 PM 37.6992 -122.3717 357° North 219 252 4,400 2,204 Climbing Oakland Center
Wed 07:11:25 PM 37.7000 -122.4167 271° West 265 305 5,500 2,660 Climbing Northern Cal TRACON
Wed 07:12:25 PM 37.6333 -122.4667 211° Southwest 286 329 8,700 3,000 Climbing Northern Cal TRACON
Wed 07:12:51 PM 37.6128 -122.4450 140° Southeast 284 327 9,800 2,621 Climbing Oakland Center
Wed 07:13:52 PM 37.5542 -122.3658 133° Southeast 314 361 12,500 2,902 Climbing Oakland Center
Wed 07:14:53 PM 37.4875 -122.2803 134° Southeast 338 389 15,700 3,148 Climbing Oakland Center
Wed 07:15:54 PM 37.4167 -122.1875 134° Southeast 366 421 18,900 2,927 Climbing Oakland Center
Wed 07:16:56 PM 37.3400 -122.0881 134° Southeast 392 451 21,700 2,683 Climbing Oakland Center
Wed 07:17:57 PM 37.2586 -121.9825 134° Southeast 416 479 24,400 2,607 Climbing Oakland Center
Wed 07:18:58 PM 37.1753 -121.8750 134° Southeast 428 493 27,000 2,656 Climbing Oakland Center
Wed 07:19:59 PM 37.0711 -121.7433 135° Southeast 444 511 29,800 2,244 Climbing Oakland Center
Wed 07:21:01 PM 36.9811 -121.6314 135° Southeast 454 522 31,600 1,902 Climbing Oakland Center
Wed 07:22:02 PM 36.8897 -121.5161 135° Southeast 466 536 33,700 2,016 Climbing Oakland Center
Wed 07:23:03 PM 36.8039 -121.4019 133° Southeast 465 535 35,700 1,820 Climbing Oakland Center
Wed 07:24:04 PM 36.7117 -121.2908 136° Southeast 463 533 37,400 1,561 Climbing Oakland Center
Wed 07:25:06 PM 36.6214 -121.1753 134° Southeast 464 534 38,900 1,463 Climbing Oakland Center
Wed 07:26:07 PM 36.5303 -121.0642 136° Southeast 459 528 40,400 1,033 Climbing Oakland Center
Wed 07:27:08 PM 36.4386 -120.9542 136° Southeast 457 526 41,000 295 Climbing Oakland Center
Wed 07:28:09 PM 36.3253 -120.8267 138° Southeast 457 526 41,000  Level Oakland Center
Wed 07:29:11 PM 36.2314 -120.7192 137° Southeast 457 526 41,000  Level Oakland Center
Wed 07:30:12 PM 36.1375 -120.6150 138° Southeast 454 522 41,000  Level Oakland Center
Wed 07:31:13 PM 36.0453 -120.5108 138° Southeast 449 517 41,000  Level Oakland Center
Wed 07:32:15 PM 35.9539 -120.4092 138° Southeast 441 507 41,000  Level Oakland Center
Wed 07:33:16 PM 35.8628 -120.3069 138° Southeast 440 506 41,000  Level Oakland Center
Wed 07:34:17 PM 35.7717 -120.2069 138° Southeast 437 503 41,000  Level Oakland Center
Wed 07:35:19 PM 35.6797 -120.1056 138° Southeast 439 505 41,000 -439 Level Oakland Center
Wed 07:36:20 PM 35.5831 -120.0064 140° Southeast 450 518 40,100 -885 Descending Oakland Center
Wed 07:37:21 PM 35.4817 -119.9111 143° Southeast 453 521 39,200 -927 Descending Oakland Center
Wed 07:38:23 PM 35.3772 -119.8156 143° Southeast 464 534 38,200 -1,000 Descending Oakland Center
Wed 07:38:39 PM 35.3375 -119.7778 142° Southeast 462 532 37,900 -1,000 Descending Los Angeles Center
Wed 07:39:41 PM 35.2342 -119.6825 143° Southeast 463 533 36,900 -960 Descending Los Angeles Center
Wed 07:40:44 PM 35.1311 -119.5878 143° Southeast 462 532 35,900 -1,248 Descending Los Angeles Center
Wed 07:41:46 PM 35.0283 -119.4925 143° Southeast 463 533 34,300 -2,274 Descending Los Angeles Center
Wed 07:42:48 PM 34.9256 -119.3981 143° Southeast 463 533 31,200 -3,048 Descending Los Angeles Center
Wed 07:43:50 PM 34.8036 -119.2878 143° Southeast 456 525 28,000 -2,736 Descending Los Angeles Center
Wed 07:44:53 PM 34.7056 -119.1983 143° Southeast 445 512 25,500 -2,323 Descending Los Angeles Center
Wed 07:45:54 PM 34.6153 -119.1181 144° Southeast 432 497 23,200 -2,293 Descending Los Angeles Center
Wed 07:46:56 PM 34.5239 -119.0333 143° Southeast 411 473 20,800 -2,274 Descending Los Angeles Center
Wed 07:47:58 PM 34.4344 -118.9522 143° Southeast 399 459 18,500 -2,419 Descending Los Angeles Center
Wed 07:49:00 PM 34.3300 -118.8692 147° Southeast 373 429 15,800 -2,468 Descending Los Angeles Center
Wed 07:50:02 PM 34.2306 -118.8344 164° South 369 425 13,400 -1,742 Descending Los Angeles Center
Wed 07:51:04 PM 34.1375 -118.8000 163° South 348 400 12,200 -1,452 Descending Los Angeles Center
Wed 07:52:06 PM 34.0706 -118.7281 138° Southeast 326 375 10,400 -1,065 Descending Los Angeles Center
Wed 07:53:08 PM 34.0461 -118.6189 105° East 310 357 10,000 -774 Descending Los Angeles Center
Wed 07:54:10 PM 34.0272 -118.5339 105° East 268 308 8,800 -1,258 Descending Los Angeles Center
Wed 07:55:12 PM 34.0133 -118.4467 101° East 253 291 7,400 -871 Descending Los Angeles Center
Wed 07:56:14 PM 34.0236 -118.3686 81° East 241 277 7,000 -581 Descending Los Angeles Center
Wed 07:57:16 PM 34.0300 -118.3000 84° East 215 247 6,200 -960 Descending Los Angeles Center
Wed 07:58:19 PM 34.0356 -118.2319 84° East 206 237 5,000 -1,190 Descending Los Angeles Center
Wed 07:59:22 PM 34.0086 -118.1894 127° Southeast 214 246 3,700 -1,152 Descending Los Angeles Center
Wed 08:00:24 PM 33.9656 -118.2503 230° Southwest 215 247 2,600 -968 Descending Los Angeles Center
Wed 08:01:26 PM 33.9592 -118.3100 263° West 196 226 1,700 -774 Descending Los Angeles Center
Wed 08:02:28 PM 33.9558 -118.3539 265° West 158 182 1,000 -677 Descending Los Angeles Center
Wed 08:03:30 PM 33.9514 -118.3933 262° West 133 153 300 -339 Descending Los Angeles Center
Wed 08:04:32 PM 33.9481 -118.4328 264° West 130 150 300  Level Los Angeles Center
Wed 08:06:00 PM 33.9425 -118.4081 90° East  Level Estimated

Login

Don't have an account? Register now (free) for customized features, flight alerts, and more!